Time;durP1;ratioP1;P1;durP2;ratioP2;P2;SDS_P1;SDS_P2;PMS_P1;PMS_P2;Temp;Humidity;BMP_temperature;BMP_pressure;BME280_temperature;BME280_humidity;BME280_pressure;Samples;Min_cycle;Max_cycle;Signal;HPM_P1;HPM_P2
2023/09/03 00:00:18;;;;;;;18.30;16.43;;;;;;;17.00;100.00;102401.16;5275404;28;20024;-75
2023/09/03 00:02:49;;;;;;;22.43;16.77;;;;;;;17.18;100.00;102420.34;5276398;28;20082;-76
2023/09/03 00:05:20;;;;;;;23.10;16.63;;;;;;;17.13;100.00;102431.22;5276810;28;20395;-75
2023/09/03 00:07:52;;;;;;;18.60;16.23;;;;;;;17.07;100.00;102426.28;5276647;28;20031;-75
2023/09/03 00:10:23;;;;;;;16.90;15.13;;;;;;;17.24;100.00;102424.41;5275665;28;20028;-75
2023/09/03 00:12:55;;;;;;;18.30;16.60;;;;;;;17.19;100.00;102423.84;5277041;28;20180;-76
2023/09/03 00:15:26;;;;;;;20.17;18.27;;;;;;;17.13;100.00;102430.38;5275927;28;20027;-76
2023/09/03 00:17:57;;;;;;;21.30;19.10;;;;;;;16.96;100.00;102428.75;5271002;28;20032;-76
2023/09/03 00:20:29;;;;;;;22.97;19.83;;;;;;;17.11;100.00;102416.38;5272285;28;20031;-75
2023/09/03 00:23:00;;;;;;;22.00;19.87;;;;;;;17.19;100.00;102418.56;5264496;28;20082;-75
2023/09/03 00:25:37;;;;;;;21.67;19.53;;;;;;;17.14;100.00;102401.16;5268967;28;20050;-75
2023/09/03 00:28:09;;;;;;;21.40;19.30;;;;;;;17.12;100.00;102424.22;5268209;28;20490;-76
2023/09/03 00:30:40;;;;;;;20.33;18.03;;;;;;;17.01;100.00;102426.66;5263769;28;20060;-76
2023/09/03 00:33:11;;;;;;;19.97;18.07;;;;;;;16.95;100.00;102429.72;5268158;28;20830;-77
2023/09/03 00:35:45;;;;;;;19.20;17.23;;;;;;;16.92;100.00;102418.38;5262652;28;20080;-78
2023/09/03 00:38:37;;;;;;;19.42;17.23;;;;;;;16.81;100.00;102420.81;5276063;28;20077;-78
2023/09/03 00:41:09;;;;;;;19.57;17.63;;;;;;;16.77;100.00;102419.31;5258649;28;20492;-78
2023/09/03 00:43:40;;;;;;;19.40;17.50;;;;;;;16.81;100.00;102444.63;5255580;28;20062;-78
2023/09/03 00:46:12;;;;;;;19.43;17.40;;;;;;;16.87;100.00;102436.31;5253798;28;20028;-77
2023/09/03 00:48:43;;;;;;;19.50;17.40;;;;;;;16.84;100.00;102451.53;5255229;28;20809;-77
2023/09/03 00:51:27;;;;;;;18.37;16.40;;;;;;;16.86;100.00;102429.31;5255081;28;20024;-77
2023/09/03 00:54:16;;;;;;;18.67;16.73;;;;;;;16.65;100.00;102445.56;5253393;28;20029;-77
2023/09/03 00:56:49;;;;;;;17.70;15.90;;;;;;;16.64;100.00;102430.63;5254382;28;20041;-78
2023/09/03 00:59:22;;;;;;;17.37;15.67;;;;;;;16.78;100.00;102453.59;5254572;28;20052;-76
2023/09/03 01:01:54;;;;;;;18.23;16.40;;;;;;;16.61;100.00;102435.25;5255116;28;20076;-78
2023/09/03 01:04:25;;;;;;;17.20;15.70;;;;;;;16.83;100.00;102445.38;5280889;28;20036;-77
2023/09/03 01:06:57;;;;;;;15.63;14.13;;;;;;;16.66;100.00;102435.84;5270008;28;20041;-77
2023/09/03 01:09:28;;;;;;;15.40;13.90;;;;;;;16.57;100.00;102461.91;5272426;28;20421;-78
2023/09/03 01:12:24;;;;;;;16.13;14.43;;;;;;;16.86;100.00;102471.66;5258723;28;20119;-77
2023/09/03 01:15:23;;;;;;;14.90;13.50;;;;;;;16.85;100.00;102469.97;5257905;28;20056;-77
2023/09/03 01:17:58;;;;;;;16.07;14.33;;;;;;;16.64;100.00;102462.38;5263370;28;20020;-76
2023/09/03 01:20:38;;;;;;;18.57;14.33;;;;;;;16.76;100.00;102455.50;5275783;28;20024;-77
2023/09/03 01:23:32;;;;;;;16.50;14.90;;;;;;;16.75;100.00;102459.09;5275337;28;20036;-77
2023/09/03 01:26:18;;;;;;;15.02;13.60;;;;;;;16.82;100.00;102451.63;5274632;28;20028;-77
2023/09/03 01:28:50;;;;;;;15.47;14.07;;;;;;;16.42;100.00;102447.78;5275990;28;20815;-77
2023/09/03 01:31:22;;;;;;;15.47;13.97;;;;;;;16.40;100.00;102451.47;5256133;28;20025;-77
2023/09/03 01:34:01;;;;;;;14.57;13.07;;;;;;;16.37;100.00;102449.84;5253494;28;20029;-77
2023/09/03 01:36:34;;;;;;;16.13;14.20;;;;;;;16.41;100.00;102459.31;5263837;28;20097;-77
2023/09/03 01:39:05;;;;;;;14.90;13.50;;;;;;;16.33;100.00;102449.19;5265059;28;20107;-77
2023/09/03 01:41:38;;;;;;;16.30;13.83;;;;;;;16.24;100.00;102459.44;5275107;28;20123;-78
2023/09/03 01:44:11;;;;;;;17.80;14.17;;;;;;;16.18;100.00;102445.66;5255246;28;20029;-77
2023/09/03 01:47:00;;;;;;;17.73;14.20;;;;;;;16.57;100.00;102446.03;5254577;28;20457;-77
2023/09/03 01:49:57;;;;;;;14.37;12.57;;;;;;;16.52;100.00;102450.75;5254541;28;20415;-77
2023/09/03 01:52:37;;;;;;;15.20;13.67;;;;;;;16.38;100.00;102456.84;5254329;28;20032;-77
2023/09/03 01:55:10;;;;;;;14.63;13.33;;;;;;;16.12;100.00;102451.31;5256161;28;20083;-77
2023/09/03 01:57:57;;;;;;;15.60;14.10;;;;;;;16.34;100.00;102452.69;5273345;28;20028;-77
2023/09/03 02:00:28;;;;;;;15.97;14.23;;;;;;;15.99;100.00;102459.06;5266830;28;20112;-77
2023/09/03 02:03:02;;;;;;;14.87;13.50;;;;;;;16.10;100.00;102466.38;5252953;28;20025;-78
2023/09/03 02:05:33;;;;;;;14.20;12.80;;;;;;;15.97;100.00;102455.63;5254694;28;20059;-78
2023/09/03 02:08:05;;;;;;;15.33;13.23;;;;;;;16.06;100.00;102451.63;5254018;28;20033;-78
2023/09/03 02:10:36;;;;;;;14.90;13.47;;;;;;;15.99;100.00;102452.94;5253708;28;20032;-77
2023/09/03 02:13:07;;;;;;;14.73;13.20;;;;;;;15.97;100.00;102467.06;5266567;28;20020;-77
2023/09/03 02:15:39;;;;;;;15.30;13.80;;;;;;;15.98;100.00;102465.28;5275095;28;20040;-77
2023/09/03 02:18:11;;;;;;;13.73;12.37;;;;;;;16.02;100.00;102480.06;5274274;28;20090;-78
2023/09/03 02:20:42;;;;;;;14.23;12.83;;;;;;;15.99;100.00;102489.91;5271511;28;20032;-76
2023/09/03 02:23:13;;;;;;;15.33;13.73;;;;;;;15.83;100.00;102482.88;5268261;28;20453;-77
2023/09/03 02:25:45;;;;;;;16.70;14.07;;;;;;;15.78;100.00;102484.91;5266886;28;20016;-77
2023/09/03 02:28:16;;;;;;;15.27;13.87;;;;;;;15.81;100.00;102495.28;5256472;28;20033;-77
2023/09/03 02:30:48;;;;;;;15.07;13.47;;;;;;;15.86;100.00;102498.53;5263909;28;20365;-77
2023/09/03 02:33:19;;;;;;;15.93;14.27;;;;;;;15.90;100.00;102478.06;5254688;28;20025;-77
2023/09/03 02:35:51;;;;;;;15.80;13.83;;;;;;;15.84;100.00;102484.56;5254550;28;20041;-76
2023/09/03 02:38:22;;;;;;;15.53;13.93;;;;;;;15.79;100.00;102495.38;5254186;28;20086;-75
2023/09/03 02:40:53;;;;;;;15.63;13.27;;;;;;;15.81;100.00;102501.41;5253944;28;20048;-75
2023/09/03 02:43:25;;;;;;;16.33;14.63;;;;;;;15.75;100.00;102496.47;5258791;28;20465;-75
2023/09/03 02:45:56;;;;;;;15.33;13.83;;;;;;;15.68;100.00;102477.50;5277142;28;20021;-75
2023/09/03 02:48:27;;;;;;;15.40;13.80;;;;;;;15.91;100.00;102485.91;5277208;28;20104;-76
2023/09/03 02:50:59;;;;;;;17.10;14.57;;;;;;;15.77;100.00;102472.63;5284762;28;20008;-76
2023/09/03 02:53:31;;;;;;;15.77;12.97;;;;;;;15.79;100.00;102476.91;5292572;28;20021;-77
2023/09/03 02:56:02;;;;;;;15.07;13.57;;;;;;;15.79;100.00;102470.75;5277481;28;20054;-76
2023/09/03 02:58:35;;;;;;;15.40;13.80;;;;;;;15.68;100.00;102469.56;5282750;28;20042;-77
2023/09/03 03:01:12;;;;;;;15.90;14.30;;;;;;;15.99;100.00;102479.34;5296982;28;20059;-76
2023/09/03 03:03:47;;;;;;;13.67;12.43;;;;;;;15.76;100.00;102478.84;5284725;28;20021;-76
2023/09/03 03:06:20;;;;;;;16.30;13.67;;;;;;;15.97;100.00;102488.19;5282719;28;20025;-75
2023/09/03 03:08:51;;;;;;;14.47;12.97;;;;;;;15.99;100.00;102487.28;5282272;28;20475;-75
2023/09/03 03:11:23;;;;;;;14.87;13.23;;;;;;;15.77;100.00;102485.81;5280257;28;20020;-75
2023/09/03 03:13:55;;;;;;;14.87;13.00;;;;;;;15.67;100.00;102486.38;5280663;28;20476;-75
2023/09/03 03:16:26;;;;;;;15.53;14.03;;;;;;;15.65;100.00;102495.28;5274924;28;20506;-75
2023/09/03 03:18:59;;;;;;;15.03;13.50;;;;;;;15.69;100.00;102502.94;5265906;28;20029;-75
2023/09/03 03:21:30;;;;;;;15.60;14.00;;;;;;;15.53;100.00;102488.91;5260038;28;20024;-75
2023/09/03 03:24:03;;;;;;;15.80;14.40;;;;;;;15.62;100.00;102490.19;5281172;28;20036;-76
2023/09/03 03:26:40;;;;;;;16.97;12.87;;;;;;;15.70;100.00;102466.84;5279249;28;20021;-76
2023/09/03 03:29:12;;;;;;;17.37;13.90;;;;;;;15.85;100.00;102450.13;5281803;28;20044;-75
2023/09/03 03:31:43;;;;;;;14.77;13.40;;;;;;;15.75;100.00;102453.34;5282056;28;20048;-76
2023/09/03 03:34:14;;;;;;;15.43;13.97;;;;;;;15.48;100.00;102445.09;5281589;28;20036;-76
2023/09/03 03:36:47;;;;;;;15.47;14.07;;;;;;;15.56;100.00;102449.13;5282088;28;20067;-76
2023/09/03 03:39:19;;;;;;;15.73;14.07;;;;;;;15.80;100.00;102449.53;5281500;28;20024;-76
2023/09/03 03:41:51;;;;;;;18.83;13.83;;;;;;;15.68;100.00;102458.13;5279852;28;20024;-76
2023/09/03 03:44:22;;;;;;;16.03;14.47;;;;;;;15.67;100.00;102470.50;5280924;28;20082;-76
2023/09/03 03:46:54;;;;;;;15.13;13.77;;;;;;;15.73;100.00;102472.81;5278534;28;20062;-77
2023/09/03 03:49:25;;;;;;;15.47;14.00;;;;;;;15.52;100.00;102482.75;5278404;28;20017;-77
2023/09/03 03:51:56;;;;;;;15.03;13.57;;;;;;;15.44;100.00;102477.91;5268105;28;20090;-77
2023/09/03 03:54:28;;;;;;;17.00;15.00;;;;;;;15.46;100.00;102502.41;5278583;28;20059;-75
2023/09/03 03:56:59;;;;;;;16.93;15.33;;;;;;;15.43;100.00;102494.66;5262529;28;20460;-75
2023/09/03 03:59:30;;;;;;;16.67;14.97;;;;;;;15.36;100.00;102490.66;5257874;28;20067;-76
2023/09/03 04:02:01;;;;;;;16.50;14.90;;;;;;;15.44;100.00;102487.63;5257400;28;20036;-76
2023/09/03 04:04:33;;;;;;;15.17;13.70;;;;;;;15.66;100.00;102486.41;5257573;28;20100;-76
2023/09/03 04:07:05;;;;;;;18.30;14.63;;;;;;;15.45;100.00;102500.72;5257276;28;20032;-78
2023/09/03 04:09:37;;;;;;;22.03;14.50;;;;;;;15.32;100.00;102499.69;5276679;28;20550;-77
2023/09/03 04:12:08;;;;;;;16.07;14.57;;;;;;;15.34;100.00;102503.09;5265456;28;20024;-77
2023/09/03 04:14:41;;;;;;;17.20;14.57;;;;;;;15.29;100.00;102499.88;5265089;28;20040;-77
2023/09/03 04:17:12;;;;;;;19.17;14.73;;;;;;;15.27;100.00;102512.28;5277534;28;20074;-78
2023/09/03 04:19:47;;;;;;;15.33;14.00;;;;;;;15.26;100.00;102518.47;5270376;28;20618;-77
2023/09/03 04:22:18;;;;;;;;;;;;;;;15.83;100.00;102515.41;5255507;28;20111;-77
2023/09/03 04:24:49;;;;;;;16.37;14.87;;;;;;;14.98;100.00;102482.06;5260554;28;20704;-77
2023/09/03 04:27:21;;;;;;;15.53;14.03;;;;;;;15.19;100.00;102521.47;5270734;28;20025;-77
2023/09/03 04:29:52;;;;;;;15.77;14.23;;;;;;;15.22;100.00;102507.25;5271212;28;20056;-77
2023/09/03 04:32:23;;;;;;;16.77;14.83;;;;;;;15.24;100.00;102505.38;5256282;28;20020;-77
2023/09/03 04:34:55;;;;;;;16.63;14.50;;;;;;;15.18;100.00;102511.84;5264890;28;20501;-76
2023/09/03 04:37:26;;;;;;;19.97;15.03;;;;;;;15.18;100.00;102518.91;5276687;28;20024;-76
2023/09/03 04:39:57;;;;;;;18.10;16.33;;;;;;;15.19;100.00;102526.72;5276291;28;20032;-78
2023/09/03 04:42:29;;;;;;;16.87;15.30;;;;;;;15.17;100.00;102533.88;5277155;28;20592;-78
2023/09/03 04:45:00;;;;;;;17.13;15.57;;;;;;;15.13;100.00;102516.50;5276669;28;20028;-77
2023/09/03 04:47:31;;;;;;;16.77;14.67;;;;;;;15.28;100.00;102541.22;5263727;28;20412;-77
2023/09/03 04:50:03;;;;;;;16.03;14.63;;;;;;;15.17;100.00;102533.88;5256018;28;20112;-77
2023/09/03 04:52:35;;;;;;;16.57;14.70;;;;;;;15.39;100.00;102532.75;5255430;28;20021;-77
2023/09/03 04:55:07;;;;;;;15.33;13.93;;;;;;;15.42;100.00;102540.50;5255266;28;20465;-76
2023/09/03 04:57:39;;;;;;;17.47;15.57;;;;;;;15.22;100.00;102544.22;5260229;28;20036;-77
2023/09/03 05:00:11;;;;;;;16.93;15.23;;;;;;;15.39;100.00;102543.31;5255159;28;20068;-76
2023/09/03 05:02:42;;;;;;;15.73;14.23;;;;;;;15.32;100.00;102552.47;5271861;28;20039;-76
2023/09/03 05:05:13;;;;;;;18.87;15.67;;;;;;;15.11;100.00;102550.88;5264766;28;20021;-77
2023/09/03 05:07:47;;;;;;;18.23;16.23;;;;;;;15.26;100.00;102561.56;5275015;28;20031;-77
2023/09/03 05:10:18;;;;;;;18.43;16.73;;;;;;;15.23;100.00;102559.09;5260288;28;20083;-77
2023/09/03 05:12:49;;;;;;;16.10;14.50;;;;;;;15.18;100.00;102554.06;5255498;28;20559;-78
2023/09/03 05:15:21;;;;;;;16.73;15.03;;;;;;;15.12;100.00;102557.88;5253960;28;20041;-76
2023/09/03 05:17:52;;;;;;;16.80;15.30;;;;;;;15.16;100.00;102550.66;5255046;28;20039;-77
2023/09/03 05:23:51;;;;;;;18.07;16.30;;;;;;;15.09;100.00;102562.47;5255100;28;20033;-76
2023/09/03 05:26:22;;;;;;;15.70;14.27;;;;;;;15.27;100.00;102573.84;5253532;28;20017;-77
2023/09/03 05:28:54;;;;;;;17.07;15.47;;;;;;;15.23;100.00;102575.78;5255535;28;20108;-77
2023/09/03 05:31:25;;;;;;;19.90;18.00;;;;;;;15.17;100.00;102570.81;5254968;28;20035;-77
2023/09/03 05:33:57;;;;;;;18.63;16.77;;;;;;;15.28;100.00;102580.81;5253590;28;20029;-77
2023/09/03 05:36:28;;;;;;;19.63;17.83;;;;;;;15.23;100.00;102580.22;5256716;28;20132;-78
2023/09/03 05:38:59;;;;;;;19.87;17.80;;;;;;;15.24;100.00;102574.84;5264513;28;20024;-77
2023/09/03 05:41:31;;;;;;;19.57;17.53;;;;;;;15.30;100.00;102568.41;5274735;28;20036;-78
2023/09/03 05:44:08;;;;;;;21.60;19.53;;;;;;;15.26;100.00;102573.91;5270739;28;20475;-78
2023/09/03 05:46:39;;;;;;;21.20;18.90;;;;;;;15.27;100.00;102565.06;5256765;28;20021;-76
2023/09/03 05:49:11;;;;;;;20.00;17.93;;;;;;;15.35;100.00;102568.16;5266934;28;20047;-77
2023/09/03 05:51:42;;;;;;;20.93;18.70;;;;;;;15.36;100.00;102570.72;5254301;28;20522;-77
2023/09/03 05:54:13;;;;;;;21.53;19.53;;;;;;;15.41;100.00;102569.63;5262861;28;20918;-78
2023/09/03 05:56:45;;;;;;;21.60;19.50;;;;;;;15.48;100.00;102579.75;5274925;28;20032;-78
2023/09/03 05:59:16;;;;;;;23.43;21.10;;;;;;;15.43;100.00;102586.25;5258897;28;20032;-77
2023/09/03 06:01:48;;;;;;;23.40;21.07;;;;;;;15.47;100.00;102595.69;5273861;28;20032;-79
2023/09/03 06:04:19;;;;;;;22.57;20.37;;;;;;;15.39;100.00;102585.56;5267927;28;20072;-78
2023/09/03 06:06:51;;;;;;;22.90;20.50;;;;;;;15.48;100.00;102602.69;5258487;28;20025;-78
2023/09/03 06:09:22;;;;;;;22.43;20.27;;;;;;;15.48;100.00;102606.16;5272813;28;20425;-78
2023/09/03 06:11:54;;;;;;;23.97;20.87;;;;;;;15.55;100.00;102600.56;5275236;28;20037;-77
2023/09/03 06:14:25;;;;;;;25.53;21.47;;;;;;;15.58;100.00;102589.84;5264284;28;20040;-76
2023/09/03 06:17:07;;;;;;;22.20;19.90;;;;;;;15.51;100.00;102583.19;5275222;28;20060;-77
2023/09/03 06:19:38;;;;;;;22.17;19.80;;;;;;;15.74;100.00;102605.72;5256145;28;20108;-78
2023/09/03 06:22:09;;;;;;;22.53;20.13;;;;;;;15.83;100.00;102612.31;5271029;28;20470;-78
2023/09/03 06:24:40;;;;;;;22.67;20.47;;;;;;;15.70;100.00;102605.03;5272845;28;20033;-78
2023/09/03 06:27:12;;;;;;;22.03;19.80;;;;;;;15.70;100.00;102605.03;5255516;28;20106;-78
2023/09/03 06:29:45;;;;;;;23.60;21.30;;;;;;;15.84;100.00;102621.94;5254576;28;20147;-78
2023/09/03 06:32:16;;;;;;;23.60;21.20;;;;;;;15.79;100.00;102614.25;5269396;28;20029;-78
2023/09/03 06:34:47;;;;;;;25.43;21.30;;;;;;;15.80;100.00;102630.94;5263082;28;20163;-75
2023/09/03 06:37:19;;;;;;;21.87;19.80;;;;;;;15.90;100.00;102655.94;5275096;28;20044;-76
2023/09/03 06:39:50;;;;;;;24.00;21.30;;;;;;;15.91;100.00;102641.81;5258829;28;20082;-76
2023/09/03 06:42:22;;;;;;;23.23;21.07;;;;;;;15.95;100.00;102655.69;5274389;28;20033;-77
2023/09/03 06:44:53;;;;;;;23.40;21.10;;;;;;;15.97;100.00;102659.94;5277174;28;20028;-77
2023/09/03 06:47:25;;;;;;;24.40;21.47;;;;;;;16.01;100.00;102665.09;5278730;28;20024;-77
2023/09/03 06:49:56;;;;;;;22.67;20.57;;;;;;;15.99;100.00;102665.19;5276088;28;20093;-77
2023/09/03 06:52:27;;;;;;;25.97;23.27;;;;;;;16.03;100.00;102660.59;5263183;28;20041;-77
2023/09/03 06:54:58;;;;;;;24.47;22.30;;;;;;;16.04;100.00;102665.78;5276791;28;20024;-77
2023/09/03 06:57:30;;;;;;;25.00;22.70;;;;;;;16.12;100.00;102662.75;5262383;28;20056;-76
2023/09/03 07:00:05;;;;;;;26.60;23.90;;;;;;;16.15;100.00;102681.06;5264069;28;20059;-77
2023/09/03 07:02:37;;;;;;;25.80;23.30;;;;;;;16.11;100.00;102678.69;5266965;28;20048;-77
2023/09/03 07:05:08;;;;;;;25.73;23.33;;;;;;;16.09;100.00;102649.69;5275247;28;20716;-77
2023/09/03 07:07:40;;;;;;;27.43;24.73;;;;;;;16.27;100.00;102673.38;5278529;28;20111;-77
2023/09/03 07:10:11;;;;;;;25.60;23.37;;;;;;;16.36;100.00;102664.97;5267012;28;20032;-77
2023/09/03 07:12:42;;;;;;;27.80;24.97;;;;;;;16.48;100.00;102675.81;5257836;28;20025;-77
2023/09/03 07:15:14;;;;;;;26.67;24.00;;;;;;;16.51;100.00;102673.00;5257361;28;20107;-78
2023/09/03 07:17:45;;;;;;;26.33;23.73;;;;;;;16.66;100.00;102688.00;5258124;28;20082;-77
2023/09/03 07:20:18;;;;;;;26.83;24.33;;;;;;;16.59;100.00;102681.34;5258578;28;20511;-78
2023/09/03 07:22:49;;;;;;;27.23;24.63;;;;;;;16.77;100.00;102694.47;5273126;28;20748;-77
2023/09/03 07:25:21;;;;;;;25.83;23.20;;;;;;;16.89;100.00;102693.75;5280604;28;20025;-77
2023/09/03 07:27:52;;;;;;;26.37;23.70;;;;;;;16.88;100.00;102689.41;5291996;28;20028;-78
2023/09/03 07:30:24;;;;;;;26.47;23.90;;;;;;;17.17;100.00;102692.16;5288473;28;20530;-77
2023/09/03 07:32:56;;;;;;;25.40;22.80;;;;;;;17.22;100.00;102676.03;5287678;28;20055;-78
2023/09/03 07:35:30;;;;;;;26.43;23.97;;;;;;;17.58;100.00;102689.78;5292517;28;20055;-77
2023/09/03 07:38:02;;;;;;;23.93;21.63;;;;;;;17.57;100.00;102692.53;5274031;28;20060;-78
2023/09/03 07:40:38;;;;;;;24.87;21.80;;;;;;;17.97;100.00;102694.53;5268609;28;20119;-77
2023/09/03 07:43:09;;;;;;;24.13;21.70;;;;;;;18.19;100.00;102703.81;5256937;28;20024;-77
2023/09/03 07:45:41;;;;;;;25.40;23.10;;;;;;;18.45;100.00;102701.34;5268665;28;20089;-77
2023/09/03 07:48:12;;;;;;;25.10;22.73;;;;;;;18.96;100.00;102713.06;5277318;28;20373;-77
2023/09/03 07:50:43;;;;;;;22.57;20.57;;;;;;;19.10;100.00;102707.72;5277719;28;20103;-78
2023/09/03 07:53:15;;;;;;;22.80;20.63;;;;;;;19.77;100.00;102723.66;5275837;28;20131;-77
2023/09/03 07:55:46;;;;;;;20.67;18.73;;;;;;;20.33;100.00;102697.63;5276128;28;20032;-77
2023/09/03 07:58:17;;;;;;;20.67;18.88;;;;;;;21.19;100.00;102715.31;5276233;28;20059;-77
2023/09/03 08:00:49;;;;;;;19.20;17.33;;;;;;;21.77;100.00;102705.59;5277173;28;20028;-77
2023/09/03 08:03:21;;;;;;;19.42;17.45;;;;;;;22.00;100.00;102695.81;5274556;28;20034;-77
2023/09/03 08:05:52;;;;;;;18.27;16.60;;;;;;;22.75;100.00;102704.97;5256105;28;20465;-78
2023/09/03 08:08:24;;;;;;;18.00;16.30;;;;;;;22.86;100.00;102713.91;5256712;28;20033;-78
2023/09/03 08:10:56;;;;;;;17.17;15.48;;;;;;;23.04;100.00;102709.69;5275855;28;20811;-78
2023/09/03 08:13:28;;;;;;;16.75;15.30;;;;;;;23.16;100.00;102717.66;5277140;28;20024;-77
2023/09/03 08:15:59;;;;;;;17.75;15.93;;;;;;;23.31;100.00;102710.16;5276365;28;20029;-76
2023/09/03 08:18:31;;;;;;;16.92;15.38;;;;;;;23.49;100.00;102715.78;5275819;28;20032;-77
2023/09/03 08:21:02;;;;;;;18.10;15.18;;;;;;;24.20;100.00;102717.75;5275357;28;20034;-76
2023/09/03 08:23:33;;;;;;;15.48;14.07;;;;;;;24.52;100.00;102708.66;5276367;28;20471;-77
2023/09/03 08:26:05;;;;;;;15.52;14.02;;;;;;;24.68;100.00;102708.06;5274965;28;20036;-76
2023/09/03 08:28:36;;;;;;;15.82;14.38;;;;;;;24.69;100.00;102674.97;5276602;28;20028;-77
2023/09/03 08:31:07;;;;;;;15.15;13.75;;;;;;;25.04;100.00;102707.53;5276336;28;20028;-76
2023/09/03 08:33:40;;;;;;;15.73;14.20;;;;;;;25.80;100.00;102710.28;5269511;28;20036;-76
2023/09/03 08:36:12;;;;;;;15.32;13.75;;;;;;;25.96;100.00;102706.09;5255169;28;20678;-76
2023/09/03 08:38:43;;;;;;;15.88;14.35;;;;;;;25.25;100.00;102695.78;5255642;28;20093;-76
2023/09/03 08:41:14;;;;;;;14.82;13.32;;;;;;;25.75;100.00;102701.84;5254322;28;20044;-77
2023/09/03 08:43:49;;;;;;;12.05;10.95;;;;;;;26.93;100.00;102715.47;5255562;28;20487;-77
2023/09/03 08:46:25;;;;;;;11.35;10.23;;;;;;;26.99;100.00;102709.47;5257486;28;20032;-75
2023/09/03 08:48:59;;;;;;;11.40;10.20;;;;;;;27.95;100.00;102719.44;5274991;28;20495;-74
2023/09/03 08:51:31;;;;;;;;;;;;;;;29.47;100.00;102722.88;5273466;28;20081;-75
2023/09/03 08:54:05;;;;;;;9.88;8.88;;;;;;;28.87;100.00;102719.56;5283346;28;19912;-75
2023/09/03 08:56:37;;;;;;;10.75;9.38;;;;;;;29.11;100.00;102721.41;5287712;28;20028;-74
2023/09/03 08:59:09;;;;;;;10.85;9.95;;;;;;;29.12;98.69;102724.97;5267636;28;20477;-75
2023/09/03 09:01:42;;;;;;;10.52;9.43;;;;;;;29.63;82.14;102709.50;5267837;28;20036;-75
2023/09/03 09:04:14;;;;;;;10.27;9.25;;;;;;;29.63;77.23;102715.75;5295542;28;20082;-76
2023/09/03 09:06:46;;;;;;;11.90;8.98;;;;;;;30.05;65.53;102711.00;5278376;28;20468;-76
2023/09/03 09:09:19;;;;;;;9.85;8.85;;;;;;;29.76;62.78;102687.34;5287839;28;20055;-75
2023/09/03 09:12:13;;;;;;;11.90;9.52;;;;;;;30.69;54.82;102721.69;5261135;28;20405;-76
2023/09/03 09:15:01;;;;;;;8.95;8.10;;;;;;;30.96;53.33;102724.88;5268490;28;20024;-76
2023/09/03 09:17:37;;;;;;;13.23;8.00;;;;;;;31.33;49.53;102719.56;5262111;28;20488;-76
2023/09/03 09:20:10;;;;;;;7.53;6.72;;;;;;;31.31;47.59;102721.63;5272433;28;20038;-75
2023/09/03 09:22:46;;;;;;;8.63;6.47;;;;;;;31.77;47.40;102718.91;5269214;28;20510;-75
2023/09/03 09:25:21;;;;;;;10.88;6.30;;;;;;;31.00;46.11;102719.94;5252804;28;20029;-75
2023/09/03 09:27:54;;;;;;;7.88;5.82;;;;;;;31.50;42.51;102724.81;5282575;28;20662;-76
2023/09/03 09:30:26;;;;;;;9.55;5.55;;;;;;;31.20;44.69;102711.25;5296280;28;20070;-76
2023/09/03 09:33:05;;;;;;;7.25;6.35;;;;;;;30.74;45.87;102688.72;5297332;28;20111;-76
2023/09/03 09:35:36;;;;;;;10.00;6.60;;;;;;;31.33;45.10;102703.31;5276473;28;20057;-77
2023/09/03 09:38:09;;;;;;;9.90;6.00;;;;;;;31.67;43.75;102684.00;5272943;28;20100;-76
2023/09/03 09:40:40;;;;;;;8.32;6.75;;;;;;;31.41;43.42;102704.28;5264827;28;20036;-76
2023/09/03 09:43:12;;;;;;;12.13;6.85;;;;;;;30.64;43.73;102678.16;5268337;28;20482;-76
2023/09/03 09:45:51;;;;;;;7.50;5.70;;;;;;;31.57;46.30;102703.25;5273381;28;20031;-77
2023/09/03 09:48:23;;;;;;;8.50;6.35;;;;;;;31.00;43.30;102691.00;5275959;28;20028;-78
2023/09/03 09:50:54;;;;;;;7.35;5.68;;;;;;;30.42;44.08;102686.13;5290033;28;20016;-77
2023/09/03 09:53:27;;;;;;;7.80;6.05;;;;;;;31.04;43.54;102667.13;5274045;28;20028;-77
2023/09/03 09:56:07;;;;;;;6.85;5.85;;;;;;;30.86;44.86;102697.25;5273713;28;20039;-75
2023/09/03 09:58:41;;;;;;;9.95;6.15;;;;;;;29.93;46.11;102661.94;5253775;28;20135;-74
2023/09/03 10:01:12;;;;;;;5.35;4.15;;;;;;;30.91;43.14;102668.59;5253716;28;20051;-75
2023/09/03 10:03:44;;;;;;;7.30;5.22;;;;;;;29.81;46.02;102690.38;5255107;28;20036;-75
2023/09/03 10:06:18;;;;;;;9.02;5.40;;;;;;;29.63;47.10;102680.66;5254287;28;20063;-75
2023/09/03 10:08:51;;;;;;;9.75;5.57;;;;;;;29.93;45.00;102699.75;5255694;28;20051;-74
2023/09/03 10:11:23;;;;;;;8.48;6.07;;;;;;;29.58;47.54;102699.22;5264899;28;20032;-73
2023/09/03 10:13:55;;;;;;;6.18;5.35;;;;;;;30.41;47.14;102701.47;5278711;28;20026;-74
2023/09/03 10:16:26;;;;;;;11.18;6.32;;;;;;;29.45;45.53;102700.59;5278832;28;20090;-74
2023/09/03 10:19:02;;;;;;;7.13;5.70;;;;;;;30.68;47.36;102669.47;5278930;28;20037;-75
2023/09/03 10:21:37;;;;;;;8.45;6.10;;;;;;;30.76;44.67;102670.41;5277301;28;20024;-75
2023/09/03 10:24:15;;;;;;;10.30;5.28;;;;;;;31.05;44.19;102657.16;5278059;28;20024;-75
2023/09/03 10:26:52;;;;;;;8.25;5.65;;;;;;;31.68;42.65;102677.56;5278023;28;20743;-75
2023/09/03 10:29:25;;;;;;;7.47;6.10;;;;;;;31.20;41.63;102692.31;5278664;28;20031;-75
2023/09/03 10:31:59;;;;;;;11.80;5.80;;;;;;;31.38;41.79;102673.81;5278404;28;20035;-75
2023/09/03 10:34:33;;;;;;;6.45;4.90;;;;;;;32.39;39.43;102703.13;5270295;28;20029;-75
2023/09/03 10:37:15;;;;;;;7.85;4.82;;;;;;;32.18;42.21;102703.94;5260143;28;20021;-75
2023/09/03 10:39:46;;;;;;;7.18;4.43;;;;;;;32.18;40.56;102698.53;5277789;28;20187;-75
2023/09/03 10:42:18;;;;;;;4.93;4.20;;;;;;;32.24;36.68;102695.03;5278275;28;20028;-75
2023/09/03 10:44:55;;;;;;;6.35;3.85;;;;;;;31.57;39.65;102695.13;5278625;28;20499;-75
2023/09/03 10:47:27;;;;;;;5.68;4.57;;;;;;;31.38;41.06;102695.47;5276196;28;20028;-75
2023/09/03 10:49:58;;;;;;;6.07;4.10;;;;;;;30.96;41.07;102705.94;5276928;28;20872;-75
2023/09/03 10:52:34;;;;;;;6.13;4.22;;;;;;;32.31;38.10;102705.97;5277617;28;20039;-76
2023/09/03 10:55:12;;;;;;;6.15;4.40;;;;;;;31.91;40.02;102703.66;5276866;28;20033;-75
2023/09/03 10:57:45;;;;;;;6.57;3.58;;;;;;;31.20;40.31;102686.91;5278743;28;20032;-76
2023/09/03 11:00:21;;;;;;;4.63;4.10;;;;;;;31.18;40.13;102702.47;5277183;28;20056;-75
2023/09/03 11:03:23;;;;;;;5.38;3.50;;;;;;;31.82;40.16;102700.22;5278425;28;20020;-76
2023/09/03 11:06:34;;;;;;;6.90;3.28;;;;;;;31.77;41.46;102697.25;5276648;28;20350;-75
2023/09/03 11:09:06;;;;;;;6.10;3.75;;;;;;;30.28;41.74;102698.53;5252457;28;20041;-75
2023/09/03 11:11:38;;;;;;;5.43;3.78;;;;;;;30.21;42.49;102689.44;5254123;28;20035;-76
2023/09/03 11:14:13;;;;;;;4.57;3.13;;;;;;;29.97;41.30;102683.19;5271678;28;20037;-76
2023/09/03 11:16:44;;;;;;;5.43;3.33;;;;;;;29.99;42.54;102686.56;5277340;28;20123;-76
2023/09/03 11:19:18;;;;;;;6.60;3.65;;;;;;;30.13;40.60;102696.56;5277693;28;20443;-76
2023/09/03 11:21:49;;;;;;;5.60;3.78;;;;;;;30.18;40.54;102701.44;5277314;28;20029;-76
2023/09/03 11:24:20;;;;;;;6.80;2.40;;;;;;;30.32;39.57;102707.97;5276103;28;20043;-74
2023/09/03 11:27:04;;;;;;;5.47;2.75;;;;;;;30.96;39.68;102708.66;5282739;28;20444;-74
2023/09/03 11:29:36;;;;;;;6.68;3.50;;;;;;;29.32;41.67;102703.84;5299425;28;20043;-75
2023/09/03 11:32:08;;;;;;;7.65;2.05;;;;;;;29.74;39.70;102705.59;5297533;28;20020;-74
2023/09/03 11:34:39;;;;;;;9.90;2.70;;;;;;;29.09;43.90;102703.75;5298603;28;20425;-75
2023/09/03 11:37:10;;;;;;;5.07;2.47;;;;;;;29.17;42.38;102679.44;5298935;28;20119;-75